createdAt,value
2023-02-18T00:02:18.095Z,62.27
2023-02-18T00:05:24.331Z,62.12
2023-02-18T00:08:28.880Z,61.81
2023-02-18T00:11:37.791Z,61.44
2023-02-18T00:14:44.305Z,61.14
2023-02-18T00:17:50.543Z,60.78
2023-02-18T00:20:55.090Z,60.38
2023-02-18T00:24:01.282Z,60.26
2023-02-18T00:27:05.777Z,59.80
2023-02-18T00:30:13.635Z,59.81
2023-02-18T00:33:19.885Z,59.67
2023-02-18T00:36:24.872Z,57.83
2023-02-18T00:39:31.697Z,58.82
2023-02-18T00:42:38.005Z,60.63
2023-02-18T00:45:44.267Z,62.87
2023-02-18T00:48:50.894Z,64.20
2023-02-18T00:51:57.322Z,64.09
2023-02-18T00:55:03.532Z,63.52
2023-02-18T00:58:08.040Z,63.20
2023-02-18T01:01:14.727Z,62.77
2023-02-18T01:04:21.387Z,61.71
2023-02-18T01:07:27.777Z,61.56
2023-02-18T01:10:34.224Z,61.33
2023-02-18T01:13:41.168Z,60.99
2023-02-18T01:16:47.496Z,60.10
2023-02-18T01:19:53.520Z,60.20
2023-02-18T01:22:59.928Z,60.16
2023-02-18T01:26:06.727Z,59.96
2023-02-18T01:29:13.357Z,59.91
2023-02-18T01:32:19.960Z,59.86
2023-02-18T01:35:27.057Z,59.22
2023-02-18T01:38:33.369Z,60.15
2023-02-18T01:41:39.603Z,60.74
2023-02-18T01:44:45.193Z,63.63
2023-02-18T01:47:51.569Z,64.10
2023-02-18T01:51:02.212Z,64.32
2023-02-18T01:54:10.935Z,64.17
2023-02-18T01:57:20.112Z,63.68
2023-02-18T02:00:26.828Z,63.25
2023-02-18T02:03:33.149Z,63.37
2023-02-18T02:06:39.591Z,63.35
2023-02-18T02:09:46.977Z,63.70
2023-02-18T02:13:02.592Z,64.00
2023-02-18T02:16:13.133Z,63.89
2023-02-18T02:19:51.449Z,63.52
2023-02-18T02:23:17.526Z,63.10
2023-02-18T02:27:00.469Z,62.93
2023-02-18T02:30:42.361Z,62.79
2023-02-18T02:34:19.076Z,62.87
2023-02-18T02:37:35.403Z,62.87
2023-02-18T02:40:48.205Z,62.78
2023-02-18T02:44:03.660Z,62.59
2023-02-18T02:47:15.818Z,62.02
2023-02-18T02:50:27.974Z,61.67
2023-02-18T02:53:35.599Z,61.51
2023-02-18T02:56:41.887Z,61.20
2023-02-18T02:59:53.968Z,60.62
2023-02-18T03:03:28.905Z,60.45
2023-02-18T03:06:56.833Z,60.57
2023-02-18T03:10:18.634Z,60.53
2023-02-18T03:13:35.400Z,60.95
2023-02-18T03:16:50.593Z,60.40
2023-02-18T03:20:03.132Z,60.26
2023-02-18T03:23:18.017Z,60.23
2023-02-18T03:47:03.652Z,63.28
2023-02-18T03:50:11.712Z,63.43
2023-02-18T03:53:17.877Z,62.95
2023-02-18T03:56:22.990Z,62.81
2023-02-18T03:59:29.259Z,62.60
2023-02-18T04:02:33.801Z,61.38
2023-02-18T04:05:39.869Z,60.84
2023-02-18T04:08:46.537Z,59.70
2023-02-18T04:11:52.761Z,58.68
2023-02-18T04:14:57.219Z,60.13
2023-02-18T04:18:03.170Z,60.44
2023-02-18T04:21:09.882Z,62.99
2023-02-18T04:24:16.109Z,63.16
2023-02-18T04:27:20.752Z,62.28
2023-02-18T04:30:27.136Z,61.83
2023-02-18T04:33:33.478Z,61.24
2023-02-18T04:36:38.067Z,60.67
2023-02-18T04:39:44.190Z,60.14
2023-02-18T04:42:50.359Z,59.94
2023-02-18T04:45:56.305Z,59.80
2023-02-18T04:49:02.566Z,59.54
2023-02-18T04:52:07.468Z,58.15
2023-02-18T04:55:13.676Z,57.54
2023-02-18T04:58:18.181Z,58.97
2023-02-18T05:01:24.497Z,59.83
2023-02-18T05:04:30.889Z,62.21
2023-02-18T05:07:37.493Z,62.76
2023-02-18T05:10:43.727Z,61.15
2023-02-18T05:13:50.045Z,58.78
2023-02-18T05:16:54.567Z,56.13
2023-02-18T05:20:00.863Z,53.32
2023-02-18T05:23:07.079Z,54.03
2023-02-18T05:26:11.675Z,53.05
2023-02-18T05:29:17.970Z,54.20
2023-02-18T05:32:22.476Z,57.04
2023-02-18T05:35:28.667Z,55.43
2023-02-18T05:38:33.294Z,57.81
2023-02-18T05:41:39.642Z,54.93
2023-02-18T05:44:44.105Z,56.14
2023-02-18T05:47:50.266Z,55.93
2023-02-18T05:50:56.943Z,57.02
2023-02-18T05:54:03.147Z,56.71
2023-02-18T05:57:07.628Z,56.50
2023-02-18T06:00:15.734Z,56.14
2023-02-18T06:03:21.980Z,58.81
2023-02-18T06:06:26.490Z,60.06
2023-02-18T06:09:32.721Z,59.42
2023-02-18T06:12:38.974Z,57.99
2023-02-18T06:15:43.528Z,58.03
2023-02-18T06:18:49.680Z,57.42
2023-02-18T06:21:56.301Z,58.38
2023-02-18T06:25:02.564Z,57.56
2023-02-18T06:28:07.118Z,58.05
2023-02-18T06:31:13.437Z,56.80
2023-02-18T06:34:19.735Z,55.09
2023-02-18T06:37:24.285Z,56.64
2023-02-18T06:40:30.452Z,57.72
2023-02-18T06:43:36.930Z,56.37
2023-02-18T06:46:43.149Z,57.73
2023-02-18T06:49:49.427Z,57.17
2023-02-18T06:52:53.930Z,56.87
2023-02-18T06:56:00.328Z,56.94
2023-02-18T06:59:06.509Z,57.04
2023-02-18T07:02:14.255Z,57.22
2023-02-18T07:05:20.632Z,57.81
2023-02-18T07:08:25.055Z,55.96
2023-02-18T07:11:31.261Z,56.42
2023-02-18T07:14:35.559Z,56.52
2023-02-18T07:17:41.817Z,55.76
2023-02-18T07:20:48.091Z,54.88
2023-02-18T07:23:52.638Z,56.53
2023-02-18T07:26:58.885Z,55.94
2023-02-18T07:30:05.688Z,55.75
2023-02-18T07:33:11.901Z,54.10
2023-02-18T07:36:16.449Z,54.17
2023-02-18T07:39:22.837Z,56.07
2023-02-18T07:42:29.036Z,54.02
2023-02-18T07:45:33.874Z,54.31
2023-02-18T07:48:40.310Z,53.93
2023-02-18T07:51:44.931Z,53.58
2023-02-18T07:54:51.295Z,55.08
2023-02-18T07:58:01.039Z,53.22
2023-02-18T08:01:11.052Z,53.38
2023-02-18T08:04:17.383Z,53.83
2023-02-18T08:07:24.572Z,52.61
2023-02-18T08:10:30.844Z,52.72
2023-02-18T08:13:35.336Z,51.95
2023-02-18T08:16:41.598Z,52.83
2023-02-18T08:19:46.141Z,50.89
2023-02-18T08:22:52.422Z,52.28
2023-02-18T08:25:56.910Z,51.90
2023-02-18T08:29:03.603Z,51.73
2023-02-18T08:32:09.929Z,52.56
2023-02-18T08:35:17.058Z,52.63
2023-02-18T08:38:24.409Z,51.15
2023-02-18T08:41:30.644Z,51.97
2023-02-18T08:44:36.876Z,51.24
2023-02-18T08:48:17.097Z,51.89
2023-02-18T08:51:17.668Z,52.33
2023-02-18T08:54:24.248Z,50.88
2023-02-18T08:57:30.490Z,51.56
2023-02-18T09:00:35.026Z,51.66
2023-02-18T09:03:42.249Z,50.40
2023-02-18T09:06:48.480Z,50.96
2023-02-18T09:09:52.999Z,51.02
2023-02-18T09:12:59.281Z,51.57
2023-02-18T09:16:05.349Z,50.91
2023-02-18T09:19:11.759Z,51.43
2023-02-18T09:22:18.190Z,50.09
2023-02-18T09:25:24.865Z,49.82
2023-02-18T09:28:30.834Z,50.15
2023-02-18T09:31:38.121Z,49.72
2023-02-18T09:34:44.484Z,50.10
2023-02-18T09:37:48.998Z,50.42
2023-02-18T09:40:57.075Z,50.65
2023-02-18T09:44:06.893Z,50.45
2023-02-18T09:47:18.443Z,51.00
2023-02-18T09:50:29.019Z,50.75
2023-02-18T09:53:35.277Z,51.37
2023-02-18T09:56:40.765Z,51.32
2023-02-18T09:59:49.002Z,52.06
2023-02-18T10:03:00.390Z,51.99
2023-02-18T10:06:12.199Z,51.55
2023-02-18T10:09:22.780Z,51.98
2023-02-18T10:12:33.052Z,51.68
2023-02-18T10:15:42.155Z,52.10
2023-02-18T10:18:50.384Z,52.28
2023-02-18T10:21:58.687Z,52.60
2023-02-18T10:25:08.255Z,51.65
2023-02-18T10:28:14.687Z,52.51
2023-02-18T10:31:27.045Z,52.76
2023-02-18T10:34:43.561Z,52.47
2023-02-18T10:38:03.013Z,51.79
2023-02-18T10:41:19.231Z,51.23
2023-02-18T10:44:37.963Z,51.15
2023-02-18T10:47:52.399Z,51.53
2023-02-18T10:51:01.757Z,50.70
2023-02-18T10:54:10.115Z,49.99
2023-02-18T10:57:21.618Z,49.41
2023-02-18T11:00:29.087Z,49.89
2023-02-18T11:03:45.242Z,50.06
2023-02-18T11:06:53.228Z,49.29
2023-02-18T11:10:01.873Z,49.91
2023-02-18T11:13:10.405Z,49.54
2023-02-18T11:16:17.430Z,50.37
2023-02-18T11:19:38.121Z,50.09
2023-02-18T11:22:44.287Z,50.34
2023-02-18T11:26:06.089Z,50.85
2023-02-18T11:29:21.303Z,50.93
2023-02-18T11:32:30.730Z,50.83
2023-02-18T11:35:39.019Z,51.35
2023-02-18T11:38:49.787Z,51.91
2023-02-18T11:42:00.460Z,51.61
2023-02-18T11:45:07.274Z,51.57
2023-02-18T11:48:20.072Z,51.87
2023-02-18T11:51:28.131Z,51.44
2023-02-18T11:54:36.129Z,51.45
2023-02-18T11:57:45.311Z,51.83
2023-02-18T12:00:53.068Z,51.86
2023-02-18T12:04:05.556Z,52.08
2023-02-18T12:07:20.599Z,52.86
2023-02-18T12:10:31.345Z,53.17
2023-02-18T12:13:42.763Z,53.79
2023-02-18T12:17:13.350Z,54.01
2023-02-18T12:20:49.475Z,54.68
2023-02-18T12:24:05.139Z,54.81
2023-02-18T12:27:18.887Z,55.73
2023-02-18T12:31:00.723Z,55.68
2023-02-18T12:34:26.111Z,56.04
2023-02-18T12:37:58.269Z,56.52
2023-02-18T12:41:20.504Z,56.93
2023-02-18T12:44:45.658Z,57.10
2023-02-18T12:48:11.525Z,57.76
2023-02-18T12:51:40.648Z,57.61
2023-02-18T12:55:18.569Z,58.33
2023-02-18T12:58:38.642Z,58.14
2023-02-18T13:02:02.123Z,58.40
2023-02-18T13:05:17.098Z,58.46
2023-02-18T13:08:38.714Z,58.97
2023-02-18T13:11:56.645Z,59.34
2023-02-18T13:15:07.956Z,59.71
2023-02-18T13:18:18.109Z,59.86
2023-02-18T13:21:26.540Z,59.96
2023-02-18T13:24:35.256Z,60.19
2023-02-18T13:27:47.076Z,60.50
2023-02-18T13:31:00.382Z,60.63
2023-02-18T13:34:14.208Z,60.59
2023-02-18T13:37:27.934Z,60.54
2023-02-18T13:40:35.444Z,60.87
2023-02-18T13:43:41.718Z,61.13
2023-02-18T13:46:53.151Z,60.86
2023-02-18T13:49:59.219Z,60.50
2023-02-18T13:53:30.903Z,60.92
2023-02-18T13:56:41.892Z,60.90
2023-02-18T13:59:49.853Z,61.18
2023-02-18T14:03:04.199Z,61.28
2023-02-18T14:06:21.407Z,61.24
2023-02-18T14:09:42.996Z,61.37
2023-02-18T14:13:20.019Z,61.55
2023-02-18T14:16:26.389Z,61.57
2023-02-18T14:19:33.217Z,61.77
2023-02-18T14:22:49.157Z,61.71
2023-02-18T14:25:57.381Z,61.61
2023-02-18T14:29:09.755Z,61.37
2023-02-18T14:32:19.313Z,61.77
2023-02-18T14:35:34.195Z,62.09
2023-02-18T14:38:49.956Z,63.73
2023-02-18T14:42:02.979Z,65.19
2023-02-18T14:45:28.396Z,63.23
2023-02-18T14:48:52.489Z,61.79
2023-02-18T14:52:00.449Z,59.14
2023-02-18T14:55:09.579Z,58.34
2023-02-18T14:58:29.409Z,58.80
2023-02-18T15:01:38.544Z,59.62
2023-02-18T15:04:46.017Z,60.00
2023-02-18T15:08:04.075Z,60.78
2023-02-18T15:11:13.126Z,61.23
2023-02-18T15:14:25.949Z,63.75
2023-02-18T15:17:32.228Z,65.24
2023-02-18T15:20:39.820Z,64.87
2023-02-18T15:23:46.045Z,64.99
2023-02-18T15:26:52.176Z,65.05
2023-02-18T15:30:00.973Z,65.50
2023-02-18T15:33:15.251Z,65.59
2023-02-18T15:36:21.982Z,65.86
2023-02-18T15:39:28.650Z,65.70
2023-02-18T15:42:37.703Z,65.87
2023-02-18T15:45:46.010Z,64.99
2023-02-18T15:48:53.591Z,65.62
2023-02-18T15:52:02.346Z,65.05
2023-02-18T15:55:15.911Z,65.45
2023-02-18T15:58:26.217Z,65.15
2023-02-18T16:01:32.851Z,66.07
2023-02-18T16:04:42.444Z,66.41
2023-02-18T16:07:58.737Z,66.51
2023-02-18T16:11:07.676Z,67.18
2023-02-18T16:14:28.175Z,67.31
2023-02-18T16:17:35.195Z,67.97
2023-02-18T16:20:42.358Z,68.13
2023-02-18T16:23:58.067Z,67.60
2023-02-18T16:27:08.091Z,68.28
2023-02-18T16:30:20.365Z,68.62
2023-02-18T16:33:26.597Z,68.73
2023-02-18T16:36:31.076Z,68.65
2023-02-18T16:39:37.784Z,68.49
2023-02-18T16:42:43.972Z,68.08
2023-02-18T16:45:50.027Z,67.98
2023-02-18T16:48:57.420Z,67.79
2023-02-18T16:52:08.221Z,67.35
2023-02-18T16:55:20.685Z,66.71
2023-02-18T16:58:26.844Z,67.21
2023-02-18T17:01:32.205Z,67.18
2023-02-18T17:04:38.895Z,66.88
2023-02-18T17:07:45.087Z,66.65
2023-02-18T17:10:52.781Z,65.90
2023-02-18T17:13:59.490Z,65.89
2023-02-18T17:17:11.825Z,65.89
2023-02-18T17:20:18.394Z,66.23
2023-02-18T17:23:26.173Z,66.29
2023-02-18T17:26:33.353Z,66.84
2023-02-18T17:29:39.617Z,67.65
2023-02-18T17:32:44.890Z,68.07
2023-02-18T17:35:51.224Z,67.10
2023-02-18T17:38:57.644Z,68.53
2023-02-18T17:42:03.805Z,68.97
2023-02-18T17:45:17.253Z,68.93
2023-02-18T17:48:23.691Z,68.97
2023-02-18T17:51:30.407Z,67.96
2023-02-18T17:54:36.585Z,68.72
2023-02-18T17:57:40.982Z,68.89
2023-02-18T18:00:50.524Z,68.96
2023-02-18T18:03:56.732Z,68.34
2023-02-18T18:07:01.236Z,68.12
2023-02-18T18:10:09.694Z,67.94
2023-02-18T18:13:20.354Z,68.07
2023-02-18T18:16:27.315Z,67.47
2023-02-18T18:19:34.278Z,66.96
2023-02-18T18:22:42.845Z,66.41
2023-02-18T18:25:50.740Z,66.35
2023-02-18T18:33:20.433Z,66.38
2023-02-18T18:36:26.837Z,66.30
2023-02-18T18:39:33.327Z,66.44
2023-02-18T18:42:39.429Z,67.05
2023-02-18T18:45:46.525Z,66.74
2023-02-18T18:48:52.736Z,66.73
2023-02-18T18:51:57.238Z,67.30
2023-02-18T18:55:03.410Z,67.79
2023-02-18T18:58:07.943Z,68.03
2023-02-18T19:01:18.867Z,68.10
2023-02-18T19:04:26.150Z,68.28
2023-02-18T19:07:32.968Z,68.28
2023-02-18T19:10:40.469Z,67.66
2023-02-18T19:13:46.874Z,68.06
2023-02-18T19:16:56.015Z,68.10
2023-02-18T19:20:02.762Z,67.87
2023-02-18T19:23:09.568Z,68.11
2023-02-18T19:26:18.204Z,68.04
2023-02-18T19:29:24.539Z,67.64
2023-02-18T19:32:30.930Z,67.65
2023-02-18T19:35:39.940Z,67.79
2023-02-18T19:38:46.956Z,67.62
2023-02-18T19:41:53.238Z,67.41
2023-02-18T19:44:58.052Z,67.14
2023-02-18T19:48:06.759Z,66.89
2023-02-18T19:51:14.717Z,66.32
2023-02-18T19:54:20.948Z,66.09
2023-02-18T19:57:25.656Z,65.69
2023-02-18T20:00:31.912Z,65.72
2023-02-18T20:03:36.529Z,65.40
2023-02-18T20:06:43.029Z,65.10
2023-02-18T20:09:52.249Z,64.58
2023-02-18T20:12:58.532Z,64.39
2023-02-18T20:16:06.712Z,64.11
2023-02-18T20:19:13.526Z,63.79
2023-02-18T20:22:19.818Z,63.78
2023-02-18T20:25:26.753Z,63.48
2023-02-18T20:28:33.025Z,63.31
2023-02-18T20:31:37.836Z,63.03
2023-02-18T20:34:44.108Z,63.27
2023-02-18T20:37:48.669Z,63.52
2023-02-18T20:40:54.890Z,64.04
2023-02-18T20:44:01.995Z,63.81
2023-02-18T20:47:08.820Z,63.62
2023-02-18T20:50:15.933Z,63.20
2023-02-18T20:53:22.071Z,63.12
2023-02-18T20:56:30.791Z,62.92
2023-02-18T20:59:37.446Z,62.57
2023-02-18T21:02:43.747Z,62.60
2023-02-18T21:05:57.425Z,62.24
2023-02-18T21:09:03.695Z,62.43
2023-02-18T21:12:09.794Z,62.58
2023-02-18T21:15:16.005Z,63.46
2023-02-18T21:18:20.447Z,63.84
2023-02-18T21:21:27.058Z,64.54
2023-02-18T21:24:33.422Z,64.76
2023-02-18T21:27:39.631Z,64.64
2023-02-18T21:30:45.492Z,64.49
2023-02-18T21:33:49.940Z,64.52
2023-02-18T21:36:56.028Z,65.12
2023-02-18T21:40:02.274Z,66.07
2023-02-18T21:43:06.789Z,67.16
2023-02-18T21:46:17.850Z,67.06
2023-02-18T21:49:24.129Z,68.15
2023-02-18T21:52:29.108Z,67.98
2023-02-18T21:55:35.318Z,67.88
2023-02-18T21:58:41.816Z,67.65
2023-02-18T22:01:48.055Z,67.43
2023-02-18T22:04:53.055Z,67.70
2023-02-18T22:07:59.098Z,67.50
2023-02-18T22:11:07.311Z,67.36
2023-02-18T22:14:14.849Z,66.91
2023-02-18T22:17:22.299Z,66.72
2023-02-18T22:20:28.557Z,66.43
2023-02-18T22:23:33.671Z,66.67
2023-02-18T22:26:39.946Z,66.71
2023-02-18T22:29:44.491Z,66.63
2023-02-18T22:32:50.717Z,66.80
2023-02-18T22:35:56.878Z,67.25
2023-02-18T22:39:03.652Z,67.47
2023-02-18T22:42:09.930Z,67.41
2023-02-18T22:45:14.464Z,67.66
2023-02-18T22:48:20.749Z,67.72
2023-02-18T22:51:26.098Z,68.09
2023-02-18T22:54:32.348Z,68.21
2023-02-18T22:57:38.802Z,68.23
2023-02-18T23:00:45.119Z,67.93
2023-02-18T23:03:49.612Z,67.55
2023-02-18T23:06:56.932Z,67.97
2023-02-18T23:10:03.241Z,68.26
2023-02-18T23:13:09.408Z,68.52
2023-02-18T23:16:16.808Z,68.70
2023-02-18T23:19:23.337Z,68.63
2023-02-18T23:22:33.608Z,68.62
2023-02-18T23:25:39.952Z,68.61
2023-02-18T23:28:49.386Z,68.62
2023-02-18T23:31:55.659Z,68.59
2023-02-18T23:35:01.825Z,68.31
2023-02-18T23:38:08.085Z,68.58
2023-02-18T23:41:12.602Z,68.73
2023-02-18T23:44:20.682Z,68.64
2023-02-18T23:47:27.179Z,68.43
2023-02-18T23:50:33.368Z,68.27
2023-02-18T23:53:40.133Z,67.80
2023-02-18T23:56:46.404Z,68.00
2023-02-18T23:59:50.919Z,67.90
